Time;durP1;ratioP1;P1;durP2;ratioP2;P2;SDS_P1;SDS_P2;PMS_P1;PMS_P2;Temp;Humidity;BMP_temperature;BMP_pressure;BME280_temperature;BME280_humidity;BME280_pressure;Samples;Min_cycle;Max_cycle;Signal;HPM_P1;HPM_P2
2023/06/16 00:00:43;;;;;;;8.38;7.13;;;;;;;17.73;74.74;101954.38;5022597;28;20029;-79
2023/06/16 00:03:09;;;;;;;9.68;7.68;;;;;;;17.68;75.15;101951.94;5045499;28;20044;-79
2023/06/16 00:05:35;;;;;;;7.85;7.15;;;;;;;17.63;75.43;101951.34;5059983;28;20114;-79
2023/06/16 00:08:02;;;;;;;7.18;6.47;;;;;;;17.61;75.64;101948.78;5059883;28;20375;-79
2023/06/16 00:10:28;;;;;;;7.85;7.20;;;;;;;17.59;75.75;101949.78;5041764;28;20035;-79
2023/06/16 00:12:54;;;;;;;7.57;6.85;;;;;;;17.58;75.64;101948.94;5059577;28;20088;-79
2023/06/16 00:15:20;;;;;;;8.63;7.60;;;;;;;17.56;75.65;101949.97;5059880;28;20032;-79
2023/06/16 00:17:46;;;;;;;8.20;6.80;;;;;;;17.54;75.79;101947.41;5060199;28;20036;-79
2023/06/16 00:20:14;;;;;;;7.30;6.45;;;;;;;17.53;75.85;101947.47;5042483;28;20222;-79
2023/06/16 00:22:41;;;;;;;8.38;6.57;;;;;;;17.53;75.96;101947.47;5050724;28;20327;-79
2023/06/16 00:25:08;;;;;;;7.63;6.78;;;;;;;17.50;76.00;101939.69;5021890;28;20332;-79
2023/06/16 00:27:33;;;;;;;8.10;6.95;;;;;;;17.48;76.09;101944.19;5021610;28;20037;-80
2023/06/16 00:30:00;;;;;;;7.05;6.45;;;;;;;17.46;76.01;101939.84;5021694;28;20100;-80
2023/06/16 00:32:25;;;;;;;7.90;6.85;;;;;;;17.44;76.03;101940.84;5039608;28;20041;-79
2023/06/16 00:34:51;;;;;;;9.65;6.95;;;;;;;17.41;76.22;101935.75;5021535;28;20033;-79
2023/06/16 00:37:16;;;;;;;10.30;7.55;;;;;;;17.36;76.53;101935.97;5021764;28;20029;-79
2023/06/16 00:39:41;;;;;;;8.50;7.80;;;;;;;17.30;76.96;101938.94;5022520;28;20036;-79
2023/06/16 00:42:08;;;;;;;7.70;6.95;;;;;;;17.31;76.99;101945.94;5018169;28;20105;-79
2023/06/16 00:44:33;;;;;;;7.50;6.80;;;;;;;17.30;77.11;101938.94;5019957;28;20038;-79
2023/06/16 00:46:59;;;;;;;7.20;6.70;;;;;;;17.29;77.06;101939.88;5006946;28;20080;-79
2023/06/16 00:49:24;;;;;;;9.57;7.03;;;;;;;17.29;77.10;101941.66;5041561;28;20109;-79
2023/06/16 00:51:51;;;;;;;8.65;6.97;;;;;;;17.25;77.17;101931.22;5057716;28;20033;-79
2023/06/16 00:54:16;;;;;;;8.10;7.00;;;;;;;17.24;76.90;101940.09;5021483;28;20029;-79
2023/06/16 00:56:43;;;;;;;9.15;6.90;;;;;;;17.25;76.98;101935.66;5021378;28;20261;-79
2023/06/16 00:59:09;;;;;;;8.25;7.38;;;;;;;17.23;77.13;101932.25;5040889;28;20052;-79
2023/06/16 01:01:34;;;;;;;9.48;7.20;;;;;;;17.21;77.16;101947.38;5041634;28;20025;-79
2023/06/16 01:04:00;;;;;;;8.60;7.78;;;;;;;17.16;77.40;101929.06;5027749;28;20049;-79
2023/06/16 01:06:43;;;;;;;8.88;7.05;;;;;;;17.19;77.26;101931.56;5039137;28;20033;-79
2023/06/16 01:09:39;;;;;;;8.40;7.28;;;;;;;17.18;76.96;101931.63;5020744;28;20159;-79
2023/06/16 01:12:34;;;;;;;7.50;6.80;;;;;;;17.16;77.00;101926.41;5020661;28;20281;-80
2023/06/16 01:15:15;;;;;;;7.90;7.10;;;;;;;17.17;76.75;101927.25;5029524;28;20041;-79
2023/06/16 01:17:45;;;;;;;7.57;6.93;;;;;;;17.15;77.04;101923.81;5021502;28;20021;-79
2023/06/16 01:20:17;;;;;;;8.73;7.03;;;;;;;17.13;77.15;101921.25;5038462;28;20336;-79
2023/06/16 01:22:56;;;;;;;8.10;7.30;;;;;;;17.10;77.20;101917.91;5039112;28;20033;-79
2023/06/16 01:25:22;;;;;;;;;;;;;;;17.10;77.52;101925.84;5039382;28;20243;-79
2023/06/16 01:27:52;;;;;;;7.80;7.00;;;;;;;17.10;77.20;101928.50;5020903;28;20207;-79
2023/06/16 01:30:22;;;;;;;8.60;7.05;;;;;;;17.09;77.31;101922.34;5021019;28;20025;-79
2023/06/16 01:32:53;;;;;;;9.45;6.47;;;;;;;17.09;76.99;101930.28;5041783;28;20037;-79
2023/06/16 01:35:20;;;;;;;7.82;7.10;;;;;;;17.10;76.99;101931.16;5040928;28;20031;-79
2023/06/16 01:37:51;;;;;;;9.65;7.55;;;;;;;17.05;76.98;101920.81;5034632;28;20064;-79
2023/06/16 01:40:18;;;;;;;8.73;7.93;;;;;;;17.01;77.37;101919.25;5038527;28;20033;-79
2023/06/16 01:42:46;;;;;;;8.25;7.45;;;;;;;17.00;77.47;101923.66;5020990;28;20425;-80
2023/06/16 01:45:15;;;;;;;7.75;6.90;;;;;;;16.99;77.05;101919.34;5038546;28;20025;-79
2023/06/16 01:47:40;;;;;;;7.43;6.82;;;;;;;17.00;77.19;101922.81;5020968;28;20038;-79
2023/06/16 01:50:06;;;;;;;7.32;6.72;;;;;;;16.99;77.30;101913.16;5038081;28;20052;-79
2023/06/16 01:52:31;;;;;;;8.20;7.40;;;;;;;16.97;77.24;101921.22;5024425;28;20033;-79
2023/06/16 01:54:57;;;;;;;7.57;6.88;;;;;;;16.95;77.15;101908.97;5058272;28;20025;-79
2023/06/16 01:57:23;;;;;;;7.88;6.82;;;;;;;16.94;77.17;101920.50;5055996;28;20072;-79
2023/06/16 01:59:59;;;;;;;7.05;6.45;;;;;;;16.93;77.16;101919.63;5020274;28;20060;-79
2023/06/16 02:02:28;;;;;;;7.88;7.15;;;;;;;16.94;76.75;101915.22;5038402;28;20279;-79
2023/06/16 02:04:54;;;;;;;;;;;;;;;16.93;76.75;101911.69;5018576;28;20052;-79
2023/06/16 02:07:24;;;;;;;7.07;6.47;;;;;;;16.95;76.28;101915.09;5019333;28;19923;-80
2023/06/16 02:09:52;;;;;;;10.52;7.18;;;;;;;16.93;76.67;101916.97;5020185;28;20037;-79
2023/06/16 02:12:17;;;;;;;7.60;6.97;;;;;;;16.95;76.60;101914.25;5038224;28;20033;-79
2023/06/16 02:14:44;;;;;;;8.45;7.30;;;;;;;16.96;76.55;101914.19;5040359;28;20383;-79
2023/06/16 02:17:09;;;;;;;8.07;6.78;;;;;;;16.98;76.05;101909.66;5019791;28;20017;-79
2023/06/16 02:19:37;;;;;;;6.93;6.30;;;;;;;17.00;76.09;101910.44;5038185;28;20115;-79
2023/06/16 02:22:03;;;;;;;8.93;6.53;;;;;;;17.02;75.93;101907.72;5020096;28;20029;-79
2023/06/16 02:24:29;;;;;;;8.45;7.00;;;;;;;16.98;76.35;101911.47;5038051;28;20033;-79
2023/06/16 02:26:54;;;;;;;8.85;6.57;;;;;;;16.92;76.44;101912.63;5037598;28;20061;-79
2023/06/16 02:29:20;;;;;;;8.82;6.47;;;;;;;16.86;77.10;101908.50;5020016;28;20079;-79
2023/06/16 02:31:47;;;;;;;7.10;6.38;;;;;;;16.88;76.61;101911.06;5020243;28;20108;-79
2023/06/16 02:34:12;;;;;;;7.78;6.05;;;;;;;16.91;76.30;101910.91;5034627;28;20053;-79
2023/06/16 02:36:38;;;;;;;6.10;5.60;;;;;;;16.95;75.72;101917.75;5040218;28;20067;-80
2023/06/16 02:39:03;;;;;;;7.32;6.30;;;;;;;16.93;76.02;101919.63;5057086;28;20059;-79
2023/06/16 02:41:28;;;;;;;7.20;6.60;;;;;;;16.87;76.27;101919.94;5057627;28;20125;-79
2023/06/16 02:43:54;;;;;;;7.45;5.93;;;;;;;16.87;76.21;101915.50;5039181;28;20098;-79
2023/06/16 02:46:19;;;;;;;7.10;6.47;;;;;;;16.84;75.74;101913.00;5039636;28;20025;-79
2023/06/16 02:48:45;;;;;;;6.35;5.80;;;;;;;16.86;76.11;101919.09;5039889;28;20075;-81
2023/06/16 02:51:10;;;;;;;8.18;5.63;;;;;;;16.84;75.79;101915.63;5057326;28;20052;-81
2023/06/16 02:53:36;;;;;;;6.43;5.88;;;;;;;16.83;75.82;101915.75;5057863;28;20100;-81
2023/06/16 02:56:02;;;;;;;6.30;5.65;;;;;;;16.87;75.27;101915.50;5039330;28;20029;-82
2023/06/16 02:58:28;;;;;;;8.18;5.82;;;;;;;16.80;75.28;101908.78;5057219;28;20131;-81
2023/06/16 03:00:53;;;;;;;7.82;5.63;;;;;;;16.81;75.63;101914.94;5056831;28;20032;-82
2023/06/16 03:03:19;;;;;;;5.88;5.38;;;;;;;16.87;75.14;101917.28;5056794;28;20028;-81
2023/06/16 03:05:44;;;;;;;6.00;5.45;;;;;;;16.83;75.16;101913.09;5042241;28;20052;-82
2023/06/16 03:08:10;;;;;;;6.07;5.57;;;;;;;16.83;74.86;101918.38;5015333;28;20026;-82
2023/06/16 03:10:35;;;;;;;5.40;4.90;;;;;;;16.86;74.79;101923.50;5017661;28;20037;-82
2023/06/16 03:13:01;;;;;;;8.15;5.07;;;;;;;16.87;74.23;101923.44;5002566;28;20578;-82
2023/06/16 03:15:27;;;;;;;5.95;5.25;;;;;;;16.89;74.48;101926.84;5019060;28;20025;-82
2023/06/16 03:17:53;;;;;;;5.68;5.18;;;;;;;16.90;74.36;101930.38;5019004;28;20291;-82
2023/06/16 03:20:19;;;;;;;6.22;5.63;;;;;;;16.88;74.98;101930.44;5037043;28;20041;-82
2023/06/16 03:22:44;;;;;;;5.63;5.13;;;;;;;16.86;74.58;101924.38;5019285;28;20285;-81
2023/06/16 03:25:10;;;;;;;5.60;5.20;;;;;;;16.86;74.62;101920.88;5036605;28;20036;-81
2023/06/16 03:27:37;;;;;;;6.03;5.53;;;;;;;16.84;74.56;101928.03;5036839;28;20033;-82
2023/06/16 03:30:03;;;;;;;6.00;5.40;;;;;;;16.80;74.61;101931.72;5036758;28;20386;-82
2023/06/16 03:32:28;;;;;;;5.53;5.13;;;;;;;16.79;74.98;101932.66;5037918;28;20328;-82
2023/06/16 03:34:55;;;;;;;5.40;4.90;;;;;;;16.76;74.67;101928.38;5038812;28;20064;-82
2023/06/16 03:37:21;;;;;;;5.65;5.13;;;;;;;16.76;74.86;101932.81;5056946;28;20041;-82
2023/06/16 03:39:49;;;;;;;5.80;5.40;;;;;;;16.71;75.00;101927.75;5056438;28;20032;-82
2023/06/16 03:42:15;;;;;;;;;;;;;;;16.69;75.62;101933.09;5039435;28;20386;-82
2023/06/16 03:44:40;;;;;;;5.32;4.93;;;;;;;16.69;75.25;101935.75;5059459;28;19905;-82
2023/06/16 03:47:06;;;;;;;5.90;4.53;;;;;;;16.68;75.17;101938.47;5060202;28;20350;-81
2023/06/16 03:49:31;;;;;;;5.72;5.22;;;;;;;16.68;75.41;101942.00;5059794;28;20060;-82
2023/06/16 03:51:57;;;;;;;5.53;4.97;;;;;;;16.67;75.67;101940.25;5060153;28;20047;-82
2023/06/16 03:54:22;;;;;;;7.55;4.68;;;;;;;16.67;75.42;101939.41;5059951;28;20071;-82
2023/06/16 03:56:48;;;;;;;8.88;4.68;;;;;;;16.66;75.37;101941.22;5059964;28;20227;-81
2023/06/16 03:59:13;;;;;;;4.53;4.22;;;;;;;16.67;75.30;101939.41;5059437;28;20032;-81
2023/06/16 04:01:41;;;;;;;5.90;5.05;;;;;;;16.66;75.51;101940.34;5042119;28;20143;-81
2023/06/16 04:04:06;;;;;;;4.40;4.05;;;;;;;16.66;75.45;101940.34;5059053;28;20045;-82
2023/06/16 04:06:34;;;;;;;4.60;4.28;;;;;;;16.67;74.75;101940.25;5042234;28;20051;-82
2023/06/16 04:09:01;;;;;;;4.68;4.28;;;;;;;16.69;74.56;101941.03;5059569;28;20059;-82
2023/06/16 04:11:27;;;;;;;6.93;4.50;;;;;;;16.68;74.60;101944.63;5041891;28;20025;-81
2023/06/16 04:13:53;;;;;;;5.25;4.20;;;;;;;16.68;74.75;101939.34;5059687;28;20029;-81
2023/06/16 04:16:18;;;;;;;5.38;4.00;;;;;;;16.69;74.18;101938.38;5041907;28;20029;-82
2023/06/16 04:18:47;;;;;;;5.18;4.68;;;;;;;16.70;73.85;101944.56;5054771;28;20029;-82
2023/06/16 04:21:16;;;;;;;5.53;5.03;;;;;;;16.66;75.15;101951.78;5021975;28;20025;-82
2023/06/16 04:23:41;;;;;;;6.93;5.78;;;;;;;16.64;75.68;101948.34;5039982;28;20056;-82
2023/06/16 04:26:08;;;;;;;6.25;5.47;;;;;;;16.62;76.13;101952.00;5039248;28;20099;-82
2023/06/16 04:28:42;;;;;;;6.45;4.82;;;;;;;16.60;76.19;101948.56;5043118;28;20029;-82
2023/06/16 04:31:09;;;;;;;6.35;5.30;;;;;;;16.58;76.44;101946.00;5059261;28;20370;-82
2023/06/16 04:33:36;;;;;;;9.13;5.15;;;;;;;16.55;77.02;101948.78;5059411;28;20320;-82
2023/06/16 04:36:03;;;;;;;5.50;5.00;;;;;;;16.54;76.95;101954.16;5059484;28;20033;-82
2023/06/16 04:38:28;;;;;;;7.78;5.30;;;;;;;16.53;77.05;101953.28;5059082;28;20383;-82
2023/06/16 04:40:54;;;;;;;5.95;5.25;;;;;;;16.52;77.36;101956.88;5058953;28;20277;-81
2023/06/16 04:43:19;;;;;;;7.68;5.47;;;;;;;16.49;77.94;101952.59;5059051;28;20051;-81
2023/06/16 04:45:45;;;;;;;5.55;4.95;;;;;;;16.50;77.83;101953.47;5059561;28;20044;-81
2023/06/16 04:48:10;;;;;;;8.82;5.57;;;;;;;16.49;77.84;101954.38;5059358;28;20048;-82
2023/06/16 04:50:36;;;;;;;8.07;5.68;;;;;;;16.49;78.51;101962.31;5059206;28;20044;-82
2023/06/16 04:53:03;;;;;;;7.57;5.30;;;;;;;16.48;78.18;101961.47;5040128;28;20032;-82
2023/06/16 04:55:30;;;;;;;5.78;5.28;;;;;;;16.48;78.20;101953.53;5022555;28;20322;-82
2023/06/16 04:57:55;;;;;;;8.80;5.47;;;;;;;16.49;78.47;101952.59;5038961;28;20072;-82
2023/06/16 05:00:20;;;;;;;7.47;5.30;;;;;;;16.50;78.44;101959.59;5055643;28;20036;-81
2023/06/16 05:02:46;;;;;;;8.05;5.75;;;;;;;16.52;78.60;101956.88;5059706;28;20241;-82
2023/06/16 05:05:11;;;;;;;27.60;5.35;;;;;;;16.55;78.29;101955.88;5058451;28;20060;-82
2023/06/16 05:07:37;;;;;;;6.10;5.60;;;;;;;16.55;77.47;101954.06;5041003;28;20266;-82
2023/06/16 05:10:03;;;;;;;7.25;5.53;;;;;;;16.56;76.45;101950.50;5058736;28;20037;-81
2023/06/16 05:12:28;;;;;;;9.10;6.30;;;;;;;16.54;76.10;101954.16;5040833;28;20048;-82
2023/06/16 05:14:54;;;;;;;12.15;6.00;;;;;;;16.53;75.90;101958.59;5058508;28;20239;-82
2023/06/16 05:17:20;;;;;;;6.68;5.90;;;;;;;16.56;75.61;101965.53;5058944;28;20147;-81
2023/06/16 05:19:45;;;;;;;11.05;5.53;;;;;;;16.61;75.24;101960.88;5043785;28;20224;-81
2023/06/16 05:22:10;;;;;;;10.77;6.38;;;;;;;16.64;75.14;101958.06;5020699;28;20101;-82
2023/06/16 05:24:36;;;;;;;11.15;6.28;;;;;;;16.65;74.17;101963.28;5021024;28;20284;-82
2023/06/16 05:27:01;;;;;;;8.68;6.15;;;;;;;16.66;73.90;101956.19;5038229;28;20113;-82
2023/06/16 05:29:27;;;;;;;10.60;6.70;;;;;;;16.72;74.67;101960.34;5038446;28;20033;-82
2023/06/16 05:31:52;;;;;;;8.95;5.30;;;;;;;16.78;74.34;101952.97;5038288;28;20219;-82
2023/06/16 05:34:18;;;;;;;7.88;5.63;;;;;;;16.85;74.16;101953.56;5051801;28;20037;-81
2023/06/16 05:36:43;;;;;;;6.40;5.00;;;;;;;16.91;74.09;101955.03;5057942;28;20117;-82
2023/06/16 05:39:14;;;;;;;5.40;4.90;;;;;;;16.97;73.42;101960.91;5050234;28;20033;-82
2023/06/16 05:41:39;;;;;;;5.32;4.82;;;;;;;17.00;73.53;101959.88;5036441;28;20263;-82
2023/06/16 05:44:06;;;;;;;7.20;4.95;;;;;;;17.04;73.16;101959.63;5036659;28;20028;-82
2023/06/16 05:46:32;;;;;;;6.00;5.40;;;;;;;17.11;72.81;101960.19;5031681;28;20066;-82
2023/06/16 05:49:02;;;;;;;5.30;4.90;;;;;;;17.19;72.54;101952.72;5048705;28;20315;-82
2023/06/16 05:51:28;;;;;;;8.80;6.22;;;;;;;17.18;72.28;101955.44;5026573;28;20037;-82
2023/06/16 05:53:54;;;;;;;12.75;5.38;;;;;;;17.18;71.71;101953.66;5035266;28;20312;-82
2023/06/16 05:56:19;;;;;;;8.98;5.75;;;;;;;17.19;71.61;101960.66;5053428;28;20040;-82
2023/06/16 05:58:44;;;;;;;8.00;5.88;;;;;;;17.20;71.49;101959.72;5037155;28;20099;-82
2023/06/16 06:01:12;;;;;;;10.10;6.03;;;;;;;17.20;71.20;101962.38;5051309;28;20127;-82
2023/06/16 06:03:43;;;;;;;8.68;6.00;;;;;;;17.26;71.44;101969.13;5042406;28;20390;-82
2023/06/16 06:06:09;;;;;;;6.38;5.30;;;;;;;17.34;71.24;101976.72;5037352;28;20083;-82
2023/06/16 06:08:34;;;;;;;10.32;6.10;;;;;;;17.38;70.96;101973.81;5038387;28;20037;-82
2023/06/16 06:11:01;;;;;;;9.27;5.75;;;;;;;17.44;70.82;101977.94;5035881;28;20025;-82
2023/06/16 06:13:26;;;;;;;6.10;5.55;;;;;;;17.42;70.91;101975.34;5039731;28;20033;-82
2023/06/16 06:15:52;;;;;;;11.07;5.70;;;;;;;17.44;71.14;101976.16;5053068;28;20327;-82
2023/06/16 06:18:17;;;;;;;7.43;5.38;;;;;;;17.48;71.14;101976.81;5032728;28;20400;-82
2023/06/16 06:20:45;;;;;;;7.78;5.50;;;;;;;17.53;71.01;101985.41;5037979;28;20061;-82
2023/06/16 06:23:11;;;;;;;7.88;5.20;;;;;;;17.56;71.23;101973.81;5026958;28;20839;-82
2023/06/16 06:25:36;;;;;;;7.00;6.07;;;;;;;17.62;71.24;101973.47;5035226;28;20105;-82
2023/06/16 06:28:01;;;;;;;8.05;5.70;;;;;;;17.65;71.29;101979.47;5035015;28;20025;-82
2023/06/16 06:30:28;;;;;;;5.68;5.18;;;;;;;17.71;70.97;101980.94;5046283;28;20340;-82
2023/06/16 06:32:55;;;;;;;9.57;5.82;;;;;;;17.77;69.81;101979.75;5037544;28;20071;-82
2023/06/16 06:35:20;;;;;;;8.48;6.07;;;;;;;17.83;69.73;101982.94;5030857;28;20045;-82
2023/06/16 06:37:49;;;;;;;8.88;5.07;;;;;;;17.90;69.75;101982.63;5034188;28;20221;-82
2023/06/16 06:40:14;;;;;;;10.75;5.70;;;;;;;17.98;69.01;101989.25;5041994;28;20037;-82
2023/06/16 06:42:40;;;;;;;10.15;5.63;;;;;;;18.07;68.51;101984.41;5050196;28;20103;-82
2023/06/16 06:45:06;;;;;;;8.65;5.15;;;;;;;18.12;67.32;101987.63;5018572;28;20109;-82
2023/06/16 06:47:31;;;;;;;6.00;4.97;;;;;;;18.18;66.70;101984.66;5030554;28;20040;-82
2023/06/16 06:49:57;;;;;;;5.68;5.03;;;;;;;18.24;66.07;101986.97;5027694;28;20053;-82
2023/06/16 06:52:22;;;;;;;11.50;4.75;;;;;;;18.34;65.89;101995.28;5029355;28;20025;-82
2023/06/16 06:54:48;;;;;;;5.95;5.00;;;;;;;18.41;65.36;102000.16;5028128;28;20060;-82
2023/06/16 06:57:14;;;;;;;5.97;4.60;;;;;;;18.49;64.57;101994.44;5027174;28;20363;-82
2023/06/16 06:59:41;;;;;;;5.75;5.05;;;;;;;18.55;64.27;101994.06;5013793;28;20272;-82
2023/06/16 07:02:07;;;;;;;10.13;5.18;;;;;;;18.60;65.77;101994.69;5013838;28;20364;-82
2023/06/16 07:04:33;;;;;;;5.03;4.65;;;;;;;18.65;65.29;101988.28;5028546;28;20044;-82
2023/06/16 07:07:00;;;;;;;4.90;4.47;;;;;;;18.66;64.63;101995.28;5026823;28;20028;-82
2023/06/16 07:09:25;;;;;;;10.15;4.57;;;;;;;18.72;64.82;102001.09;5019062;28;20256;-82
2023/06/16 07:11:50;;;;;;;6.57;4.30;;;;;;;18.74;63.77;101995.72;5020897;28;20052;-82
2023/06/16 07:14:16;;;;;;;8.25;4.47;;;;;;;18.78;63.01;101992.78;5010936;28;20096;-83
2023/06/16 07:16:41;;;;;;;13.95;4.47;;;;;;;18.88;63.86;102000.25;5026453;28;20032;-82
2023/06/16 07:19:06;;;;;;;9.23;4.40;;;;;;;18.96;64.11;102000.69;5033778;28;20234;-83
2023/06/16 07:21:32;;;;;;;9.00;4.38;;;;;;;19.06;63.53;101996.53;5037127;28;20466;-82
2023/06/16 07:23:57;;;;;;;3.92;3.53;;;;;;;19.13;63.47;102002.34;5032981;28;20427;-82
2023/06/16 07:26:23;;;;;;;8.50;4.70;;;;;;;19.20;61.41;101994.88;5033685;28;20041;-82
2023/06/16 07:28:48;;;;;;;5.18;4.13;;;;;;;19.27;61.94;102004.19;5034685;28;20078;-82
2023/06/16 07:31:14;;;;;;;6.75;4.13;;;;;;;19.33;61.89;101998.50;5037413;28;20328;-83
2023/06/16 07:33:39;;;;;;;3.20;3.00;;;;;;;19.38;61.87;102002.59;5034098;28;20043;-82
2023/06/16 07:36:05;;;;;;;5.00;4.47;;;;;;;19.44;60.96;102000.53;5035347;28;20037;-82
2023/06/16 07:38:31;;;;;;;8.68;4.55;;;;;;;19.52;61.35;102006.25;5033099;28;20072;-82
2023/06/16 07:40:56;;;;;;;5.18;4.43;;;;;;;19.53;60.37;102002.63;5030904;28;20033;-82
2023/06/16 07:43:21;;;;;;;11.50;4.43;;;;;;;19.56;59.18;102007.78;5022144;28;20195;-82
2023/06/16 07:45:47;;;;;;;7.50;3.65;;;;;;;19.60;59.97;102009.28;5025881;28;20035;-82
2023/06/16 07:48:14;;;;;;;6.38;4.07;;;;;;;19.65;60.98;102003.72;5026098;28;20048;-82
2023/06/16 07:50:40;;;;;;;4.50;4.13;;;;;;;19.73;61.25;102002.31;5019337;28;20296;-82
2023/06/16 07:53:06;;;;;;;5.55;4.20;;;;;;;19.81;59.79;102008.97;5035380;28;20091;-82
2023/06/16 07:55:31;;;;;;;7.32;4.00;;;;;;;19.85;57.86;102005.19;5034242;28;20076;-82
2023/06/16 07:57:57;;;;;;;7.25;4.20;;;;;;;19.90;58.49;102008.38;5029264;28;20116;-82
2023/06/16 08:00:22;;;;;;;7.13;4.05;;;;;;;19.96;57.17;102001.88;5044616;28;20421;-82
2023/06/16 08:02:48;;;;;;;5.78;4.18;;;;;;;20.00;57.58;101998.91;5038433;28;20155;-82
2023/06/16 08:05:16;;;;;;;5.15;3.28;;;;;;;20.07;56.31;101994.06;5027771;28;20064;-83
2023/06/16 08:07:43;;;;;;;3.70;3.10;;;;;;;20.10;57.11;101989.41;5031003;28;20383;-82
2023/06/16 08:10:09;;;;;;;5.05;3.60;;;;;;;20.17;55.90;101995.19;5018825;28;20284;-82
2023/06/16 08:12:34;;;;;;;5.13;3.45;;;;;;;20.22;56.00;101997.56;5039745;28;20094;-82
2023/06/16 08:15:00;;;;;;;5.25;3.03;;;;;;;20.27;56.41;101998.13;5040130;28;20037;-82
2023/06/16 08:17:25;;;;;;;5.43;3.75;;;;;;;20.32;55.61;101996.03;5037085;28;20029;-82
2023/06/16 08:19:52;;;;;;;5.50;3.92;;;;;;;20.38;54.44;101998.31;5033285;28;20356;-82
2023/06/16 08:22:18;;;;;;;7.90;3.47;;;;;;;20.43;54.65;101992.66;5036246;28;20280;-82
2023/06/16 08:24:43;;;;;;;4.10;3.30;;;;;;;20.46;54.38;101992.47;5040672;28;20100;-83
2023/06/16 08:27:08;;;;;;;3.92;3.55;;;;;;;20.50;54.19;101994.84;5048916;28;20049;-82
2023/06/16 08:29:34;;;;;;;6.47;3.88;;;;;;;20.53;52.06;101997.31;5030387;28;20029;-82
2023/06/16 08:32:00;;;;;;;9.75;3.63;;;;;;;20.53;51.92;101997.31;5036369;28;20448;-82
2023/06/16 08:34:26;;;;;;;7.15;3.95;;;;;;;20.59;53.26;102001.41;5041946;28;20340;-82
2023/06/16 08:36:51;;;;;;;3.17;2.97;;;;;;;20.61;53.54;101999.53;5056988;28;20067;-82
2023/06/16 08:39:17;;;;;;;3.72;3.10;;;;;;;20.68;54.14;101994.63;5036818;28;20025;-82
2023/06/16 08:41:43;;;;;;;6.93;3.30;;;;;;;20.78;53.88;102003.72;5037379;28;20075;-82
2023/06/16 08:44:10;;;;;;;15.00;4.88;;;;;;;20.78;50.58;101989.56;5037518;28;20277;-82
2023/06/16 08:46:36;;;;;;;5.25;3.63;;;;;;;20.82;49.40;101988.41;5027727;28;20284;-83
2023/06/16 08:49:03;;;;;;;3.67;3.30;;;;;;;20.83;50.01;101984.78;5038173;28;20216;-82
2023/06/16 08:51:33;;;;;;;3.75;3.33;;;;;;;20.89;52.04;101990.56;5038817;28;20307;-82
2023/06/16 08:54:02;;;;;;;3.67;3.47;;;;;;;20.93;51.91;101985.88;5053719;28;20036;-82
2023/06/16 08:56:33;;;;;;;3.85;3.05;;;;;;;20.98;52.99;101983.78;5043173;28;20100;-82
2023/06/16 08:59:03;;;;;;;3.50;3.20;;;;;;;21.06;52.11;101983.25;5039636;28;20284;-82
2023/06/16 09:01:30;;;;;;;6.00;3.80;;;;;;;21.08;52.01;101982.22;5031255;28;20245;-82
2023/06/16 09:03:55;;;;;;;4.55;3.55;;;;;;;21.13;51.71;101989.03;5032079;28;20045;-82
2023/06/16 09:06:21;;;;;;;3.35;3.08;;;;;;;21.21;49.88;101979.59;5014339;28;20049;-82
2023/06/16 09:08:47;;;;;;;4.18;2.90;;;;;;;21.24;50.68;101981.16;5015628;28;20029;-82
2023/06/16 09:11:21;;;;;;;4.20;2.60;;;;;;;21.28;50.69;101991.53;5014888;28;20028;-82
2023/06/16 09:13:46;;;;;;;3.33;3.13;;;;;;;21.33;50.52;101990.34;5035850;28;20041;-82
2023/06/16 09:16:16;;;;;;;4.00;2.83;;;;;;;21.38;48.55;101989.06;5021439;28;20020;-82
2023/06/16 09:18:44;;;;;;;4.95;3.05;;;;;;;21.41;48.72;101986.22;5034916;28;20339;-82
2023/06/16 09:21:11;;;;;;;3.92;3.10;;;;;;;21.41;47.93;101983.53;5034526;28;20037;-82
2023/06/16 09:23:38;;;;;;;3.30;3.00;;;;;;;21.47;46.91;101995.63;5019677;28;20034;-82
2023/06/16 09:26:13;;;;;;;3.67;2.92;;;;;;;21.51;45.56;101994.44;5036475;28;20029;-82
2023/06/16 09:28:39;;;;;;;3.97;2.88;;;;;;;21.52;45.95;101989.97;5037503;28;20041;-82
2023/06/16 09:31:07;;;;;;;5.55;3.15;;;;;;;21.55;47.89;101990.59;5033817;28;20072;-82
2023/06/16 09:33:34;;;;;;;2.42;2.22;;;;;;;21.61;46.79;101989.31;5046974;28;20087;-82
2023/06/16 09:35:59;;;;;;;6.10;2.88;;;;;;;21.69;45.28;101988.81;5046052;28;20098;-82
2023/06/16 09:38:26;;;;;;;6.55;3.20;;;;;;;21.74;42.94;101984.00;5039784;28;20036;-82
2023/06/16 09:40:51;;;;;;;5.05;2.80;;;;;;;21.76;43.02;101982.09;5056061;28;20106;-82
2023/06/16 09:43:17;;;;;;;2.95;2.63;;;;;;;21.54;44.83;101986.25;5047309;28;20037;-82
2023/06/16 09:45:44;;;;;;;2.70;2.50;;;;;;;21.36;43.54;101988.34;5039860;28;20100;-82
2023/06/16 09:48:11;;;;;;;2.92;2.63;;;;;;;21.22;44.37;101978.59;5033160;28;20025;-83
2023/06/16 09:50:38;;;;;;;3.88;2.58;;;;;;;21.13;45.36;101981.03;5037618;28;20036;-83
2023/06/16 09:53:08;;;;;;;5.28;2.75;;;;;;;21.10;45.72;101982.09;5024483;28;20029;-83
2023/06/16 09:55:40;;;;;;;3.00;2.70;;;;;;;21.08;45.06;101979.56;5037912;28;20037;-83
2023/06/16 09:58:06;;;;;;;9.38;2.70;;;;;;;21.05;44.09;101978.91;5037002;28;20041;-82
2023/06/16 10:00:32;;;;;;;3.17;2.83;;;;;;;21.04;43.58;101982.50;5037314;28;20033;-83
2023/06/16 10:02:59;;;;;;;2.78;2.53;;;;;;;21.05;43.94;101971.75;5044136;28;20071;-83
2023/06/16 10:05:25;;;;;;;3.25;2.97;;;;;;;21.06;45.69;101977.94;5046463;28;20132;-83
2023/06/16 10:07:55;;;;;;;2.90;2.70;;;;;;;21.08;46.56;101976.00;5042064;28;20037;-82
2023/06/16 10:10:23;;;;;;;2.65;2.20;;;;;;;21.09;47.75;101973.25;5037232;28;20047;-83
2023/06/16 10:12:50;;;;;;;7.88;2.75;;;;;;;21.13;48.19;101971.25;5022629;28;20068;-83
2023/06/16 10:15:26;;;;;;;2.80;2.60;;;;;;;21.16;48.22;101968.38;5037627;28;20041;-83
2023/06/16 10:17:54;;;;;;;3.15;2.30;;;;;;;21.17;47.92;101962.06;5034198;28;20160;-82
2023/06/16 10:20:25;;;;;;;3.20;3.00;;;;;;;21.20;46.55;101966.34;5036965;28;20041;-82
2023/06/16 10:22:51;;;;;;;4.25;2.97;;;;;;;21.25;46.77;101959.75;5041003;28;20037;-82
2023/06/16 10:25:18;;;;;;;3.08;2.88;;;;;;;21.29;47.51;101960.41;5037316;28;20029;-82
2023/06/16 10:27:44;;;;;;;5.95;3.10;;;;;;;21.35;46.14;101959.97;5037251;28;20046;-82
2023/06/16 10:30:16;;;;;;;3.45;2.67;;;;;;;21.44;46.53;101959.34;5036645;28;20118;-82
2023/06/16 10:32:46;;;;;;;7.60;3.00;;;;;;;21.46;46.01;101952.13;5037656;28;20080;-82
2023/06/16 10:35:13;;;;;;;5.30;2.70;;;;;;;21.48;46.35;101944.03;5035626;28;20029;-82
2023/06/16 10:37:38;;;;;;;3.13;2.83;;;;;;;21.53;46.95;101959.69;5037413;28;20272;-82
2023/06/16 10:40:04;;;;;;;4.22;3.10;;;;;;;21.58;45.19;101955.75;5036811;28;20092;-82
2023/06/16 10:42:34;;;;;;;2.72;2.40;;;;;;;21.64;46.55;101954.47;5019121;28;20041;-82
2023/06/16 10:45:27;;;;;;;3.40;3.10;;;;;;;21.66;46.51;101955.22;5035476;28;20071;-82
2023/06/16 10:47:59;;;;;;;2.58;2.38;;;;;;;21.66;46.84;101955.22;5035789;28;20039;-82
2023/06/16 10:50:42;;;;;;;4.10;2.90;;;;;;;21.69;46.81;101954.16;5014692;28;20029;-83
2023/06/16 10:53:16;;;;;;;4.75;2.90;;;;;;;21.70;46.47;101951.34;5037423;28;20217;-82
2023/06/16 10:55:44;;;;;;;9.82;3.25;;;;;;;21.71;43.83;101953.09;5031380;28;20030;-82
2023/06/16 10:58:16;;;;;;;4.25;3.58;;;;;;;21.71;44.04;101950.41;5022055;28;20036;-82
2023/06/16 11:01:16;;;;;;;5.57;3.15;;;;;;;21.71;44.46;101942.41;5035778;28;20033;-83
2023/06/16 11:03:43;;;;;;;7.05;2.90;;;;;;;21.74;44.07;101944.00;5042368;28;20052;-82
2023/06/16 11:06:09;;;;;;;3.92;3.13;;;;;;;21.87;43.40;101944.00;5035537;28;20072;-82
2023/06/16 11:08:52;;;;;;;3.75;2.67;;;;;;;21.95;44.09;101939.81;5034944;28;20260;-82
2023/06/16 11:11:18;;;;;;;5.07;3.00;;;;;;;22.06;43.84;101944.38;5038194;28;20020;-82
2023/06/16 11:13:44;;;;;;;4.43;2.88;;;;;;;22.12;43.83;101938.63;5050753;28;20320;-82
2023/06/16 11:16:09;;;;;;;3.22;2.92;;;;;;;22.10;43.59;101940.53;5040287;28;20049;-82
2023/06/16 11:18:35;;;;;;;2.65;2.50;;;;;;;22.09;43.71;101944.16;5038270;28;20232;-82
2023/06/16 11:21:10;;;;;;;2.85;2.65;;;;;;;22.07;43.59;101940.75;5040778;28;20416;-82
2023/06/16 11:23:35;;;;;;;10.48;2.47;;;;;;;22.06;42.85;101931.03;5035714;28;20243;-82